Time;durP1;ratioP1;P1;durP2;ratioP2;P2;SDS_P1;SDS_P2;PMS_P1;PMS_P2;Temp;Humidity;BMP_temperature;BMP_pressure;BME280_temperature;BME280_humidity;BME280_pressure;Samples;Min_cycle;Max_cycle;Signal;HPM_P1;HPM_P2
2023/02/08 00:01:16;;;;;;;;;;;;;;;-1.21;53.98;101453.38;5073416;28;20306;-40
2023/02/08 00:03:41;;;;;;;;;;;;;;;-1.10;53.59;101454.56;5073269;28;19928;-41
2023/02/08 00:06:07;;;;;;;;;;;;;;;-1.33;54.78;101458.44;5087867;28;19916;-42
2023/02/08 00:08:33;;;;;;;;;;;;;;;-0.81;54.64;101463.34;5093190;28;19919;-42
2023/02/08 00:10:58;;;;;;;;;;;;;;;-1.35;53.87;101468.13;5093321;28;19966;-42
2023/02/08 00:13:24;;;;;;;;;;;;;;;-1.17;54.25;101474.13;5093249;28;20003;-42
2023/02/08 00:15:51;;;;;;;;;;;;;;;-1.28;54.77;101477.31;5093299;28;20321;-42
2023/02/08 00:18:16;;;;;;;;;;;;;;;-1.01;53.54;101477.53;5093130;28;19974;-42
2023/02/08 00:20:42;;;;;;;;;;;;;;;-1.13;53.92;101486.09;5093258;28;19948;-42
2023/02/08 00:23:07;;;;;;;;;;;;;;;-1.55;54.99;101484.91;5093247;28;20319;-42
2023/02/08 00:25:32;;;;;;;;;;;;;;;-1.45;56.19;101491.28;5093238;28;19912;-42
2023/02/08 00:27:58;;;;;;;;;;;;;;;-1.60;55.18;101493.81;5093189;28;19960;-42
2023/02/08 00:30:23;;;;;;;;;;;;;;;-1.35;56.38;101489.03;5092993;28;19978;-42
2023/02/08 00:32:48;;;;;;;;;;;;;;;-1.55;54.54;101483.13;5093091;28;19920;-42
2023/02/08 00:35:13;;;;;;;;;;;;;;;-1.65;55.97;101493.22;5092904;28;19985;-42
2023/02/08 00:37:39;;;;;;;;;;;;;;;-1.93;55.65;101493.00;5092992;28;19999;-42
2023/02/08 00:40:04;;;;;;;;;;;;;;;-1.53;54.88;101498.72;5093183;28;19995;-42
2023/02/08 00:42:30;;;;;;;;;;;;;;;-1.19;54.97;101495.09;5092483;28;19916;-42
2023/02/08 00:44:55;;;;;;;;;;;;;;;-1.35;55.12;101502.09;5092588;28;19916;-42
2023/02/08 00:47:21;;;;;;;;;;;;;;;-1.09;53.69;101501.50;5092645;28;20003;-42
2023/02/08 00:49:46;;;;;;;;;;;;;;;-0.86;53.97;101509.81;5092400;28;19943;-40
2023/02/08 00:52:11;;;;;;;;;;;;;;;-0.85;55.25;101519.38;5092382;28;19927;-40
2023/02/08 00:54:36;;;;;;;;;;;;;;;-0.96;53.32;101506.88;5075962;28;20058;-40
2023/02/08 00:57:02;;;;;;;;;;;;;;;-1.06;53.38;101510.94;5072188;28;19919;-41
2023/02/08 00:59:27;;;;;;;;;;;;;;;-1.11;53.98;101510.34;5072602;28;19912;-40
2023/02/08 01:01:52;;;;;;;;;;;;;;;-1.53;54.77;101517.00;5072287;28;19919;-40
2023/02/08 01:04:17;;;;;;;;;;;;;;;-1.43;55.58;101513.81;5072062;28;20284;-40
2023/02/08 01:06:43;;;;;;;;;;;;;;;-1.06;54.31;101506.56;5072153;28;19912;-40
2023/02/08 01:09:08;;;;;;;;;;;;;;;-0.84;54.58;101503.59;5072117;28;19944;-40
2023/02/08 01:11:33;;;;;;;;;;;;;;;-1.15;54.69;101509.69;5072076;28;19960;-42
2023/02/08 01:13:59;;;;;;;;;;;;;;;-0.97;54.63;101505.22;5072022;28;19913;-42
2023/02/08 01:16:26;;;;;;;;;;;;;;;-1.12;54.21;101500.81;5071886;28;20423;-40
2023/02/08 01:18:52;;;;;;;;;;;;;;;-1.37;54.98;101507.41;5072008;28;19924;-41
2023/02/08 01:21:22;;;;;;;;;;;;;;;-1.13;55.23;101507.00;5071640;28;19929;-41
2023/02/08 01:23:47;;;;;;;;;;;;;;;-1.68;55.09;101511.63;5071779;28;20392;-41
2023/02/08 01:26:13;;;;;;;;;;;;;;;-1.62;55.56;101513.94;5071792;28;19921;-41
2023/02/08 01:28:39;;;;;;;;;;;;;;;-1.78;56.05;101515.66;5071592;28;19912;-41
2023/02/08 01:31:08;;;;;;;;;;;;;;;-1.31;55.58;101501.84;5071563;28;19957;-41
2023/02/08 01:33:33;;;;;;;;;;;;;;;-1.46;54.93;101510.53;5071572;28;19913;-41
2023/02/08 01:35:59;;;;;;;;;;;;;;;-1.34;55.04;101507.22;5071549;28;20383;-41
2023/02/08 01:38:24;;;;;;;;;;;;;;;-1.73;55.96;101516.28;5071705;28;19912;-41
2023/02/08 01:40:50;;;;;;;;;;;;;;;-1.96;55.72;101512.28;5087012;28;20307;-41
2023/02/08 01:43:23;;;;;;;;;;;;;;;-1.31;55.07;101514.06;5091495;28;20015;-41
2023/02/08 01:45:48;;;;;;;;;;;;;;;-1.22;54.93;101514.41;5071318;28;20344;-42
2023/02/08 01:48:19;;;;;;;;;;;;;;;-0.83;54.00;101514.88;5073813;28;19924;-41
2023/02/08 01:50:56;;;;;;;;;;;;;;;-0.99;53.40;101514.88;5070526;28;19946;-42
2023/02/08 01:53:22;;;;;;;;;;;;;;;-0.87;54.86;101519.44;5076430;28;20240;-41
2023/02/08 01:55:50;;;;;;;;;;;;;;;-0.80;52.66;101518.19;5091583;28;19916;-42
2023/02/08 01:58:17;;;;;;;;;;;;;;;-1.28;54.69;101521.72;5091533;28;19913;-42
2023/02/08 02:00:42;;;;;;;;;;;;;;;-1.25;54.75;101524.19;5091557;28;19912;-41
2023/02/08 02:03:08;;;;;;;;;;;;;;;-1.28;54.09;101519.13;5091317;28;19912;-41
2023/02/08 02:05:44;;;;;;;;;;;;;;;-1.35;54.20;101531.69;5091166;28;19916;-41
2023/02/08 02:08:09;;;;;;;;;;;;;;;-1.77;55.38;101535.66;5091130;28;20240;-41
2023/02/08 02:10:36;;;;;;;;;;;;;;;-1.72;55.03;101530.19;5090918;28;19919;-41
2023/02/08 02:13:04;;;;;;;;;;;;;;;-1.42;55.07;101527.72;5091223;28;19922;-41
2023/02/08 02:15:30;;;;;;;;;;;;;;;-1.22;54.87;101529.22;5091115;28;19912;-41
2023/02/08 02:17:56;;;;;;;;;;;;;;;-1.26;54.14;101525.94;5091377;28;19919;-41
2023/02/08 02:20:39;;;;;;;;;;;;;;;-1.33;54.83;101537.66;5089486;28;19981;-41
2023/02/08 02:23:07;;;;;;;;;;;;;;;-1.78;55.04;101539.16;5090816;28;20370;-41
2023/02/08 02:25:33;;;;;;;;;;;;;;;-1.53;54.66;101537.88;5091056;28;20000;-42
2023/02/08 02:28:07;;;;;;;;;;;;;;;-1.22;53.90;101537.94;5090872;28;20376;-42
2023/02/08 02:30:41;;;;;;;;;;;;;;;-1.40;54.17;101536.31;5090889;28;19912;-42
2023/02/08 02:33:18;;;;;;;;;;;;;;;-1.74;54.55;101534.63;5090890;28;19916;-41
2023/02/08 02:35:55;;;;;;;;;;;;;;;-1.99;55.02;101541.94;5090733;28;19916;-42
2023/02/08 02:38:39;;;;;;;;;;;;;;;-1.95;55.53;101533.97;5090794;28;20034;-42
2023/02/08 02:43:40;;;;;;;;;;;;;;;-1.71;54.18;101548.38;5090818;28;19916;-42
2023/02/08 02:44:08;;;;;;;;;;;;;;;-1.99;55.38;101546.34;5090364;28;20395;-42
2023/02/08 02:46:42;;;;;;;;;;;;;;;-1.90;54.88;101558.91;5090734;28;19912;-42
2023/02/08 02:49:36;;;;;;;;;;;;;;;-1.62;55.55;101554.88;5090424;28;19913;-41
2023/02/08 02:52:09;;;;;;;;;;;;;;;-0.95;53.60;101558.25;5087879;28;20076;-41
2023/02/08 02:54:39;;;;;;;;;;;;;;;-2.19;54.79;101519.50;5090439;28;19970;-42
2023/02/08 02:57:06;;;;;;;;;;;;;;;-1.86;54.99;101564.81;5090209;28;19955;-42
2023/02/08 02:59:33;;;;;;;;;;;;;;;-1.84;55.53;101570.81;5090880;28;19932;-42
2023/02/08 03:01:58;;;;;;;;;;;;;;;-1.64;54.81;101582.81;5090414;28;19912;-42
2023/02/08 03:04:32;;;;;;;;;;;;;;;-1.73;54.67;101584.16;5089804;28;20065;-42
2023/02/08 03:07:06;;;;;;;;;;;;;;;-1.42;54.42;101572.94;5088870;28;19912;-42
2023/02/08 03:09:37;;;;;;;;;;;;;;;-1.39;53.34;101582.38;5090148;28;20540;-42
2023/02/08 03:12:19;;;;;;;;;;;;;;;-1.23;53.77;101585.88;5090297;28;19916;-42
2023/02/08 03:14:56;;;;;;;;;;;;;;;-1.46;53.64;101584.47;5088058;28;20079;-42
2023/02/08 03:17:32;;;;;;;;;;;;;;;-1.47;54.66;101588.00;5090197;28;19912;-42
2023/02/08 03:20:10;;;;;;;;;;;;;;;-1.20;53.44;101588.31;5090540;28;19916;-42
2023/02/08 03:22:42;;;;;;;;;;;;;;;-1.85;54.11;101590.81;5090003;28;19920;-42
2023/02/08 03:25:17;;;;;;;;;;;;;;;-1.33;56.10;101589.91;5090642;28;19926;-42
2023/02/08 03:27:54;;;;;;;;;;;;;;;-1.08;52.98;101593.81;5090075;28;20327;-42
2023/02/08 03:30:43;;;;;;;;;;;;;;;-0.94;54.01;101586.06;5090099;28;19978;-42
2023/02/08 03:33:16;;;;;;;;;;;;;;;-1.16;54.16;101601.22;5089826;28;19916;-42
2023/02/08 03:36:13;;;;;;;;;;;;;;;-1.20;53.29;101597.91;5089658;28;19912;-42
2023/02/08 03:38:41;;;;;;;;;;;;;;;-0.87;53.60;101597.88;5088665;28;19919;-42
2023/02/08 03:41:09;;;;;;;;;;;;;;;-1.30;52.36;101605.41;5090215;28;19912;-42
2023/02/08 03:43:55;;;;;;;;;;;;;;;-1.30;54.28;101605.41;5089424;28;19999;-42
2023/02/08 03:46:26;;;;;;;;;;;;;;;-1.11;53.00;101607.88;5089906;28;19912;-42
2023/02/08 03:48:55;;;;;;;;;;;;;;;-1.31;54.18;101603.72;5089797;28;19970;-42
2023/02/08 03:51:21;;;;;;;;;;;;;;;-1.15;52.77;101610.75;5089923;28;19916;-42
2023/02/08 03:53:47;;;;;;;;;;;;;;;-1.11;53.58;101607.03;5089807;28;20380;-42
2023/02/08 03:56:19;;;;;;;;;;;;;;;-0.89;53.23;101604.94;5089299;28;19927;-42
2023/02/08 03:58:46;;;;;;;;;;;;;;;-0.79;52.82;101606.13;5089377;28;19977;-42
2023/02/08 04:01:15;;;;;;;;;;;;;;;-0.95;52.81;101620.13;5090311;28;19966;-42
2023/02/08 04:03:42;;;;;;;;;;;;;;;-1.24;52.26;101626.00;5089566;28;19916;-42
2023/02/08 04:06:07;;;;;;;;;;;;;;;-1.33;52.95;101620.38;5090104;28;19916;-40
2023/02/08 04:08:32;;;;;;;;;;;;;;;-1.50;53.50;101623.91;5089734;28;20429;-41
2023/02/08 04:10:57;;;;;;;;;;;;;;;-1.55;54.31;101626.75;5089859;28;19916;-41
2023/02/08 04:13:23;;;;;;;;;;;;;;;-1.86;53.49;101623.09;5089773;28;20337;-42
2023/02/08 04:15:48;;;;;;;;;;;;;;;-1.67;54.74;101617.78;5089746;28;19928;-41
2023/02/08 04:18:13;;;;;;;;;;;;;;;-1.88;53.83;101624.09;5092255;28;19919;-41
2023/02/08 04:20:38;;;;;;;;;;;;;;;-1.31;54.02;101624.63;5093546;28;19939;-41
2023/02/08 04:23:04;;;;;;;;;;;;;;;-1.66;52.90;101624.66;5093413;28;20034;-41
2023/02/08 04:25:29;;;;;;;;;;;;;;;-1.40;54.46;101638.16;5093248;28;19947;-41
2023/02/08 04:27:54;;;;;;;;;;;;;;;-1.42;52.46;101633.00;5092939;28;20027;-41
2023/02/08 04:30:20;;;;;;;;;;;;;;;-1.26;52.96;101643.50;5092978;28;20022;-41
2023/02/08 04:32:45;;;;;;;;;;;;;;;-1.16;52.88;101635.19;5092843;28;20334;-41
2023/02/08 04:35:10;;;;;;;;;;;;;;;-1.75;53.48;101640.81;5093118;28;20368;-41
2023/02/08 04:37:35;;;;;;;;;;;;;;;-1.60;53.18;101645.25;5093105;28;19918;-41
2023/02/08 04:40:01;;;;;;;;;;;;;;;-1.49;53.41;101642.09;5093369;28;20554;-41
2023/02/08 04:42:26;;;;;;;;;;;;;;;-1.32;52.82;101649.03;5093127;28;20070;-41
2023/02/08 04:44:51;;;;;;;;;;;;;;;-1.17;52.91;101649.19;5092690;28;20360;-41
2023/02/08 04:47:16;;;;;;;;;;;;;;;-1.10;52.60;101653.16;5092710;28;19912;-41
2023/02/08 04:49:42;;;;;;;;;;;;;;;-1.31;52.49;101623.78;5092497;28;19935;-40
2023/02/08 04:52:07;;;;;;;;;;;;;;;-1.24;52.58;101662.56;5092524;28;19932;-41
2023/02/08 04:54:32;;;;;;;;;;;;;;;-1.22;52.57;101667.69;5092596;28;19915;-41
2023/02/08 04:56:58;;;;;;;;;;;;;;;-1.23;55.42;101669.47;5092390;28;19940;-41
2023/02/08 04:59:23;;;;;;;;;;;;;;;-1.58;54.08;101668.66;5092700;28;20402;-41
2023/02/08 05:01:48;;;;;;;;;;;;;;;-0.85;52.49;101665.75;5094593;28;19966;-41
2023/02/08 05:04:14;;;;;;;;;;;;;;;-0.50;51.62;101666.44;5110435;28;19915;-42
2023/02/08 05:06:39;;;;;;;;;;;;;;;-1.44;55.47;101673.22;5112733;28;19911;-42
2023/02/08 05:09:08;;;;;;;;;;;;;;;-1.58;53.73;101679.97;5093911;28;19920;-40
2023/02/08 05:11:33;;;;;;;;;;;;;;;-1.42;52.44;101694.88;5092125;28;19916;-41
2023/02/08 05:13:59;;;;;;;;;;;;;;;-1.10;52.47;101697.59;5092152;28;19919;-41
2023/02/08 05:16:24;;;;;;;;;;;;;;;-1.21;51.98;101693.75;5100748;28;19920;-36
2023/02/08 05:18:49;;;;;;;;;;;;;;;-1.36;52.71;101691.94;5111396;28;20274;-35
2023/02/08 05:21:14;;;;;;;;;;;;;;;-2.18;54.25;101690.75;5104001;28;19986;-41
2023/02/08 05:23:40;;;;;;;;;;;;;;;-1.68;52.59;101698.78;5112443;28;19915;-41
2023/02/08 05:26:06;;;;;;;;;;;;;;;-1.54;52.86;101698.09;5112517;27;20263;-42
2023/02/08 05:28:31;;;;;;;;;;;;;;;-1.61;52.82;101690.56;5111050;28;19912;-41
2023/02/08 05:30:56;;;;;;;;;;;;;;;-1.39;52.30;101697.31;5112224;28;19990;-41
2023/02/08 05:33:22;;;;;;;;;;;;;;;-1.48;54.99;101697.78;5111983;28;20335;-41
2023/02/08 05:35:47;;;;;;;;;;;;;;;-1.42;51.83;101703.53;5111721;28;19911;-36
2023/02/08 05:38:12;;;;;;;;;;;;;;;-1.51;52.56;101706.59;5111177;28;20318;-36
2023/02/08 05:40:38;;;;;;;;;;;;;;;-1.65;52.79;101711.69;5111946;28;19923;-36
2023/02/08 05:43:03;;;;;;;;;;;;;;;-1.34;52.24;101708.38;5111514;28;19951;-36
2023/02/08 05:45:28;;;;;;;;;;;;;;;-1.70;52.06;101701.47;5111692;28;20297;-42
2023/02/08 05:47:54;;;;;;;;;;;;;;;-1.74;52.88;101707.75;5112146;28;19916;-43
2023/02/08 05:50:19;;;;;;;;;;;;;;;-1.52;52.98;101714.50;5111821;28;19980;-41
2023/02/08 05:52:44;;;;;;;;;;;;;;;-1.53;53.22;101712.84;5109684;28;19955;-41
2023/02/08 05:55:10;;;;;;;;;;;;;;;-1.16;51.83;101714.44;5090444;28;19912;-41
2023/02/08 05:57:36;;;;;;;;;;;;;;;-1.03;52.09;101718.09;5090403;28;20057;-42
2023/02/08 06:00:03;;;;;;;;;;;;;;;-0.98;51.19;101725.69;5091468;28;19912;-41
2023/02/08 06:02:30;;;;;;;;;;;;;;;-0.70;50.70;101726.84;5091058;28;19912;-42
2023/02/08 06:04:55;;;;;;;;;;;;;;;-0.71;50.78;101741.69;5091192;28;19916;-42
2023/02/08 06:07:20;;;;;;;;;;;;;;;-0.43;49.64;101745.44;5091605;28;19912;-42
2023/02/08 06:09:46;;;;;;;;;;;;;;;-0.86;50.96;101734.66;5091253;28;20419;-42
2023/02/08 06:12:11;;;;;;;;;;;;;;;-0.96;50.51;101749.13;5091295;28;19923;-42
2023/02/08 06:14:36;;;;;;;;;;;;;;;-0.80;50.77;101752.63;5091290;28;19918;-41
2023/02/08 06:17:01;;;;;;;;;;;;;;;-1.00;51.02;101749.28;5091320;28;19919;-42
2023/02/08 06:19:27;;;;;;;;;;;;;;;-0.68;50.28;101748.53;5091261;28;20346;-41
2023/02/08 06:21:52;;;;;;;;;;;;;;;0.58;67.82;101749.34;5091233;28;19920;-43
2023/02/08 06:24:17;;;;;;;;;;;;;;;2.76;68.54;101757.59;5091065;28;20305;-43
2023/02/08 06:26:43;;;;;;;;;;;;;;;3.51;60.87;101755.88;5091287;28;19958;-43
2023/02/08 06:29:08;;;;;;;;;;;;;;;4.14;49.95;101755.78;5090766;28;20279;-43
2023/02/08 06:31:34;;;;;;;;;;;;;;;4.23;53.64;101751.66;5091162;28;19916;-43
2023/02/08 06:33:59;;;;;;;;;;;;;;;4.07;46.77;101760.69;5090642;28;20388;-43
2023/02/08 06:36:25;;;;;;;;;;;;;;;4.20;45.11;101750.06;5090818;28;19916;-43
2023/02/08 06:38:50;;;;;;;;;;;;;;;5.27;46.48;101753.44;5090863;28;19941;-43
2023/02/08 06:41:16;;;;;;;;;;;;;;;4.64;47.06;101756.44;5090953;28;19912;-42
2023/02/08 06:43:41;;;;;;;;;;;;;;;4.64;41.54;101755.63;5090692;28;19944;-42
2023/02/08 06:46:07;;;;;;;;;;;;;;;4.55;44.35;101753.66;5090089;28;20380;-42
2023/02/08 06:48:33;;;;;;;;;;;;;;;5.03;43.53;101761.47;5090184;28;19951;-42
2023/02/08 06:50:58;;;;;;;;;;;;;;;4.26;41.96;101756.69;5090591;28;19966;-44
2023/02/08 06:53:23;;;;;;;;;;;;;;;4.47;46.44;101762.16;5090242;28;19912;-42
2023/02/08 06:55:49;;;;;;;;;;;;;;;4.53;41.65;101759.06;5090814;28;19921;-42
2023/02/08 06:58:14;;;;;;;;;;;;;;;4.27;39.22;101761.84;5090891;28;20439;-43
2023/02/08 07:00:40;;;;;;;;;;;;;;;2.88;40.51;101762.03;5089655;28;19919;-42
2023/02/08 07:03:05;;;;;;;;;;;;;;;2.57;42.03;101772.00;5088581;28;19912;-43
2023/02/08 07:05:33;;;;;;;;;;;;;;;2.03;42.28;101764.13;5089020;28;19912;-42
2023/02/08 07:07:58;;;;;;;;;;;;;;;0.69;45.19;101767.09;5089607;28;19912;-42
2023/02/08 07:10:23;;;;;;;;;;;;;;;0.94;45.54;101769.94;5089534;28;19913;-41
2023/02/08 07:12:49;;;;;;;;;;;;;;;1.02;45.42;101784.38;5089504;28;20395;-41
2023/02/08 07:15:14;;;;;;;;;;;;;;;0.55;45.79;101779.22;5088871;28;19951;-42
2023/02/08 07:17:39;;;;;;;;;;;;;;;0.30;46.97;101781.53;5089823;28;19920;-41
2023/02/08 07:20:05;;;;;;;;;;;;;;;0.49;46.79;101786.56;5089860;28;19973;-43
2023/02/08 07:22:30;;;;;;;;;;;;;;;-0.22;48.24;101799.22;5089911;28;19962;-42
2023/02/08 07:24:55;;;;;;;;;;;;;;;0.18;47.47;101791.78;5100974;28;19915;-41
2023/02/08 07:27:21;;;;;;;;;;;;;;;0.22;48.04;101792.44;5089255;28;20281;-41
2023/02/08 07:29:46;;;;;;;;;;;;;;;0.38;47.15;101789.78;5088544;28;19951;-41
2023/02/08 07:32:12;;;;;;;;;;;;;;;0.37;46.88;101794.19;5088793;28;20440;-41
2023/02/08 07:34:39;;;;;;;;;;;;;;;0.44;47.15;101801.69;5088989;28;20007;-42
2023/02/08 07:37:05;;;;;;;;;;;;;;;0.59;47.14;101800.81;5088963;28;19947;-42
2023/02/08 07:39:30;;;;;;;;;;;;;;;0.32;47.69;101811.94;5089416;28;20410;-42
2023/02/08 07:41:55;;;;;;;;;;;;;;;0.50;47.09;101807.44;5088836;28;20419;-48
2023/02/08 07:44:21;;;;;;;;;;;;;;;0.53;46.99;101817.75;5087441;28;19908;-42
2023/02/08 07:46:46;;;;;;;;;;;;;;;0.64;46.49;101806.66;5088014;28;19926;-42
2023/02/08 07:49:11;;;;;;;;;;;;;;;0.89;47.21;101813.91;5087070;28;20249;-42
2023/02/08 07:51:37;;;;;;;;;;;;;;;0.67;46.20;101803.84;5087554;28;20000;-41
2023/02/08 07:54:02;;;;;;;;;;;;;;;0.82;46.80;101815.22;5091327;28;19963;-42
2023/02/08 07:56:27;;;;;;;;;;;;;;;0.99;46.79;101816.88;5091702;28;19966;-41
2023/02/08 07:58:53;;;;;;;;;;;;;;;0.86;46.43;101810.66;5092255;28;19913;-41
2023/02/08 08:01:18;;;;;;;;;;;;;;;0.87;46.66;101809.72;5092456;28;19920;-42
2023/02/08 08:03:43;;;;;;;;;;;;;;;0.78;46.73;101811.94;5092170;28;19924;-42
2023/02/08 08:06:09;;;;;;;;;;;;;;;1.19;46.45;101817.44;5092316;28;19912;-42
2023/02/08 08:08:34;;;;;;;;;;;;;;;1.33;46.21;101812.19;5092253;28;19912;-41
2023/02/08 08:10:59;;;;;;;;;;;;;;;1.33;45.54;101814.81;5092152;28;19916;-42
2023/02/08 08:13:25;;;;;;;;;;;;;;;1.92;44.64;101818.19;5092061;28;19915;-42
2023/02/08 08:15:50;;;;;;;;;;;;;;;1.80;45.01;101826.81;5091948;28;19912;-42
2023/02/08 08:18:15;;;;;;;;;;;;;;;2.40;44.42;101819.53;5092433;28;19912;-41
2023/02/08 08:20:41;;;;;;;;;;;;;;;2.78;42.86;101819.66;5092092;28;19916;-42
2023/02/08 08:23:06;;;;;;;;;;;;;;;3.27;42.62;101821.59;5091839;28;19960;-42
2023/02/08 08:25:32;;;;;;;;;;;;;;;3.26;41.60;101821.72;5092071;28;19934;-42
2023/02/08 08:27:57;;;;;;;;;;;;;;;3.21;42.14;101822.03;5091753;28;19956;-43
2023/02/08 08:30:22;;;;;;;;;;;;;;;3.60;41.28;101822.84;5091537;28;20360;-43
2023/02/08 08:32:47;;;;;;;;;;;;;;;3.84;40.03;101817.63;5091718;28;20345;-41
2023/02/08 08:35:13;;;;;;;;;;;;;;;4.03;39.58;101826.88;5091805;28;19918;-42
2023/02/08 08:37:38;;;;;;;;;;;;;;;4.24;39.38;101835.03;5091639;28;19930;-41
2023/02/08 08:40:05;;;;;;;;;;;;;;;3.94;39.69;101828.38;5091892;28;19916;-42
2023/02/08 08:42:31;;;;;;;;;;;;;;;4.18;38.71;101831.03;5091712;28;19939;-43
2023/02/08 08:44:56;;;;;;;;;;;;;;;4.44;38.22;101826.50;5091268;28;20358;-40
2023/02/08 08:47:21;;;;;;;;;;;;;;;4.34;37.96;101820.25;5091375;28;19919;-41
2023/02/08 08:49:47;;;;;;;;;;;;;;;4.77;37.34;101819.69;5091027;28;20007;-43
2023/02/08 08:52:12;;;;;;;;;;;;;;;4.79;37.57;101825.69;5090951;28;19973;-43
2023/02/08 08:54:37;;;;;;;;;;;;;;;4.89;37.39;101825.81;5091064;28;20038;-42
2023/02/08 08:57:03;;;;;;;;;;;;;;;4.49;37.84;101820.88;5091780;28;19916;-42
2023/02/08 08:59:28;;;;;;;;;;;;;;;5.31;36.88;101823.50;5091620;28;19916;-42
2023/02/08 09:01:53;;;;;;;;;;;;;;;5.49;36.45;101824.72;5091108;28;20324;-42
2023/02/08 09:04:21;;;;;;;;;;;;;;;5.40;36.10;101827.25;5091105;28;19923;-42
2023/02/08 09:06:47;;;;;;;;;;;;;;;5.34;36.30;101830.38;5091211;28;20283;-41
2023/02/08 09:09:12;;;;;;;;;;;;;;;5.15;35.88;101833.59;5090995;28;20106;-41
2023/02/08 09:11:38;;;;;;;;;;;;;;;4.97;35.95;101815.56;5090868;28;20247;-42
2023/02/08 09:14:03;;;;;;;;;;;;;;;5.36;35.82;101812.63;5091019;28;19912;-42
2023/02/08 09:16:29;;;;;;;;;;;;;;;5.44;35.71;101841.91;5090850;28;20334;-42
2023/02/08 09:18:55;;;;;;;;;;;;;;;5.39;35.29;101846.72;5090914;28;19916;-42
2023/02/08 09:21:21;;;;;;;;;;;;;;;5.36;35.36;101842.50;5090648;28;19931;-42
2023/02/08 09:23:47;;;;;;;;;;;;;;;5.25;34.99;101843.34;5090808;28;19916;-42
2023/02/08 09:26:13;;;;;;;;;;;;;;;5.54;35.61;101842.88;5090979;28;20273;-42
2023/02/08 09:28:38;;;;;;;;;;;;;;;5.78;34.64;101850.66;5091132;28;20010;-41
2023/02/08 09:31:08;;;;;;;;;;;;;;;5.37;35.47;101852.09;5078916;28;20364;-42
2023/02/08 09:33:33;;;;;;;;;;;;;;;5.88;35.51;101838.44;5079240;28;19931;-41
2023/02/08 09:35:59;;;;;;;;;;;;;;;5.26;36.00;101846.81;5079455;28;20011;-42
2023/02/08 09:38:24;;;;;;;;;;;;;;;5.05;35.44;101849.28;5079869;28;19954;-42
2023/02/08 09:40:55;;;;;;;;;;;;;;;5.53;35.10;101840.34;5078922;28;19962;-42
2023/02/08 09:43:30;;;;;;;;;;;;;;;5.99;34.01;101840.22;5079735;28;19912;-41
2023/02/08 09:46:03;;;;;;;;;;;;;;;6.00;34.14;101834.00;5079614;28;19966;-42
2023/02/08 09:48:32;;;;;;;;;;;;;;;5.63;33.83;101834.22;5079069;28;20377;-41
2023/02/08 09:51:18;;;;;;;;;;;;;;;5.58;34.18;101835.53;5080629;28;19919;-41
2023/02/08 09:53:49;;;;;;;;;;;;;;;5.80;34.27;101832.06;5079330;28;19916;-42
2023/02/08 09:56:15;;;;;;;;;;;;;;;6.08;33.29;101828.09;5080197;28;19917;-40
2023/02/08 09:58:44;;;;;;;;;;;;;;;5.72;34.00;101821.25;5082694;28;19912;-40
2023/02/08 10:01:22;;;;;;;;;;;;;;;5.76;33.12;101825.34;5079645;28;19961;-41
2023/02/08 10:03:50;;;;;;;;;;;;;;;6.32;32.63;101822.63;5076034;28;20311;-41
2023/02/08 10:06:16;;;;;;;;;;;;;;;6.34;32.14;101822.47;5069701;28;20376;-41
2023/02/08 10:08:46;;;;;;;;;;;;;;;5.75;32.84;101813.94;5078366;28;19919;-41
2023/02/08 10:11:22;;;;;;;;;;;;;;;5.72;33.72;101811.53;5081377;28;19928;-42
2023/02/08 10:13:47;;;;;;;;;;;;;;;5.91;33.73;101810.91;5078689;28;20056;-41
2023/02/08 10:16:18;;;;;;;;;;;;;;;6.11;33.57;101813.78;5070317;28;20364;-41
2023/02/08 10:19:00;;;;;;;;;;;;;;;6.44;33.22;101804.91;5070473;28;19952;-42
2023/02/08 10:21:48;;;;;;;;;;;;;;;6.12;33.43;101803.09;5084314;28;19945;-42
2023/02/08 10:24:13;;;;;;;;;;;;;;;6.56;32.77;101811.00;5109952;28;19972;-41
2023/02/08 10:26:45;;;;;;;;;;;;;;;6.63;32.08;101807.72;5109948;28;19920;-41
2023/02/08 10:29:16;;;;;;;;;;;;;;;6.63;32.17;101806.88;5109745;28;19951;-42
2023/02/08 10:32:00;;;;;;;;;;;;;;;6.09;32.24;101799.84;5109637;28;19927;-42
2023/02/08 10:34:25;;;;;;;;;;;;;;;6.17;32.55;101798.28;5110204;28;20342;-42
2023/02/08 10:36:51;;;;;;;;;;;;;;;6.06;32.89;101793.84;5109838;28;20316;-42
2023/02/08 10:39:18;;;;;;;;;;;;;;;5.74;33.58;101796.41;5110455;28;20002;-42
2023/02/08 10:41:44;;;;;;;;;;;;;;;6.15;32.80;101791.41;5109792;28;19911;-42
2023/02/08 10:44:10;;;;;;;;;;;;;;;5.35;33.92;101795.94;5109563;28;19911;-41
2023/02/08 10:46:54;;;;;;;;;;;;;;;5.50;33.55;101801.78;5108110;28;20239;-42
2023/02/08 10:49:30;;;;;;;;;;;;;;;5.31;33.35;101796.28;5108334;28;19918;-41
2023/02/08 10:51:56;;;;;;;;;;;;;;;5.32;34.09;101790.06;5108385;28;19928;-41
2023/02/08 10:54:21;;;;;;;;;;;;;;;5.36;33.36;101794.97;5093982;28;19969;-41
2023/02/08 10:56:46;;;;;;;;;;;;;;;5.87;32.76;101791.81;5088982;28;20371;-41
2023/02/08 10:59:14;;;;;;;;;;;;;;;6.18;32.31;101797.28;5089100;28;19912;-42
2023/02/08 11:01:40;;;;;;;;;;;;;;;6.18;32.18;101794.66;5089175;28;20338;-41
2023/02/08 11:04:09;;;;;;;;;;;;;;;6.07;32.34;101790.25;5089496;28;20003;-41
2023/02/08 11:06:34;;;;;;;;;;;;;;;6.20;32.00;101786.59;5089002;28;19912;-41
2023/02/08 11:09:00;;;;;;;;;;;;;;;6.22;30.78;101776.75;5088849;28;20002;-42
2023/02/08 11:11:28;;;;;;;;;;;;;;;5.91;32.42;101781.84;5089120;28;20074;-40
2023/02/08 11:14:04;;;;;;;;;;;;;;;5.81;33.36;101776.44;5088613;28;19913;-42
2023/02/08 11:16:29;;;;;;;;;;;;;;;6.29;32.56;101769.16;5088025;28;19947;-42
2023/02/08 11:21:58;;;;;;;;;;;;;;;5.73;32.50;101765.66;5084251;28;20314;-41
2023/02/08 11:24:34;;;;;;;;;;;;;;;5.71;32.53;101766.72;5089008;28;19920;-36
2023/02/08 11:27:01;;;;;;;;;;;;;;;5.75;32.68;101769.03;5090071;28;19920;-36
2023/02/08 11:29:28;;;;;;;;;;;;;;;6.36;32.62;101765.88;5092993;28;19982;-36
2023/02/08 11:31:53;;;;;;;;;;;;;;;6.84;31.01;101775.13;5093115;28;20361;-37
2023/02/08 11:34:23;;;;;;;;;;;;;;;6.96;31.23;101773.25;5092903;28;20376;-36
2023/02/08 11:36:48;;;;;;;;;;;;;;;5.63;32.81;101775.28;5093097;28;19943;-36
2023/02/08 11:39:40;;;;;;;;;;;;;;;6.12;31.76;101766.06;5092989;28;19951;-36
2023/02/08 11:42:06;;;;;;;;;;;;;;;6.59;31.38;101769.25;5092735;28;19945;-36
2023/02/08 11:44:36;;;;;;;;;;;;;;;6.03;31.94;101761.53;5093544;28;19924;-36
2023/02/08 11:47:03;;;;;;;;;;;;;;;6.02;30.84;101768.63;5093180;28;19919;-37
2023/02/08 11:49:36;;;;;;;;;;;;;;;5.95;31.26;101754.22;5092546;28;19912;-37
2023/02/08 11:52:03;;;;;;;;;;;;;;;6.29;30.56;101767.34;5092824;28;19920;-37
2023/02/08 11:54:33;;;;;;;;;;;;;;;6.35;30.77;101761.53;5076851;28;19912;-36
2023/02/08 11:57:02;;;;;;;;;;;;;;;5.23;31.97;101757.28;5072769;28;19961;-43
2023/02/08 11:59:28;;;;;;;;;;;;;;;4.19;33.45;101763.34;5072873;28;20400;-39
2023/02/08 12:01:54;;;;;;;;;;;;;;;4.87;32.56;101759.16;5072833;28;20447;-42
2023/02/08 12:04:21;;;;;;;;;;;;;;;4.90;32.76;101765.03;5071836;28;19919;-42
2023/02/08 12:06:49;;;;;;;;;;;;;;;5.23;32.05;101766.03;5072524;28;19951;-42
2023/02/08 12:09:20;;;;;;;;;;;;;;;4.83;32.50;101763.81;5072633;28;19916;-42
2023/02/08 12:11:48;;;;;;;;;;;;;;;5.24;32.58;101758.97;5072463;28;19957;-41
2023/02/08 12:14:32;;;;;;;;;;;;;;;5.81;31.39;101762.41;5072494;28;19956;-42
2023/02/08 12:17:16;;;;;;;;;;;;;;;5.47;32.66;101771.19;5072258;28;19920;-42
2023/02/08 12:19:45;;;;;;;;;;;;;;;5.37;32.53;101762.34;5072542;28;19942;-41
2023/02/08 12:22:15;;;;;;;;;;;;;;;5.58;32.11;101764.22;5071524;28;20120;-42
2023/02/08 12:24:58;;;;;;;;;;;;;;;4.92;32.75;101761.44;5071001;28;19931;-42
2023/02/08 12:27:42;;;;;;;;;;;;;;;5.32;32.38;101764.47;5071169;28;19920;-42
2023/02/08 12:30:39;;;;;;;;;;;;;;;5.46;32.74;101763.38;5071199;28;20011;-43
2023/02/08 12:33:32;;;;;;;;;;;;;;;5.33;33.12;101762.66;5058803;28;19931;-44
2023/02/08 12:36:19;;;;;;;;;;;;;;;4.61;32.87;101761.97;5071087;28;19939;-42
2023/02/08 12:42:06;;;;;;;;;;;;;;;5.22;31.98;101768.81;5071005;28;19974;-41
2023/02/08 12:44:38;;;;;;;;;;;;;;;4.86;32.43;101765.41;5070646;28;19924;-41
2023/02/08 12:47:22;;;;;;;;;;;;;;;4.92;32.63;101757.00;5070929;28;19913;-43
2023/02/08 12:50:08;;;;;;;;;;;;;;;5.25;32.23;101760.63;5070732;28;19912;-42
2023/02/08 12:52:45;;;;;;;;;;;;;;;5.34;32.38;101754.63;5070661;28;19956;-42